Glory Ocean — 9VDE7 — position and weather

sailwx.info

Track history (hours):
 
Tides and Currents Weather Stations Pressure Air Temp Water Temp Dewpoint Dewpoint Depression Visibility Wind Speed Wind Dir Waves Ship Positions

Glory Ocean

Last reported at 2016-Sep-26 20:28 UTC. Time now 2016-Sep-30 11:51 UTC.
Position N 38°01' W 030°59'.

Length 139 m; draft 9 m.

Type: Cargo ship. MMSI: 564700000.

Date/timePositionNaut miles runAvg speedWind from/ knotsBaromVisibWave heightAir tempDewpointWater temp
2016-Sep-26 20:28N 38°01' W 030°59'910.2
2016-Sep-26 19:33N 38°01' W 030°47'4210.6
2016-Sep-26 15:34N 37°57' W 029°53'2211.2
2016-Sep-26 13:33N 37°56' W 029°25'2211.0
2016-Sep-26 11:33N 37°54' W 028°57'3311.0
2016-Sep-26 08:33N 37°52' W 028°15'6711.1
2016-Sep-26 02:33N 37°47' W 026°51'1111.4
2016-Sep-26 01:33N 37°46' W 026°37'1111.1
2016-Sep-26 00:34N 37°45' W 026°23'3411.2
2016-Sep-25 21:34N 37°43' W 025°40'2 0.5
2016-Sep-25 17:32N 37°44' W 025°38'1 1.3
2016-Sep-25 16:33N 37°43' W 025°37'10 9.9
2016-Sep-25 15:34N 37°40' W 025°26'1110.8
2016-Sep-25 14:34N 37°40' W 025°12'2210.8
2016-Sep-25 12:34N 37°40' W 024°45'1010.4
2016-Sep-25 11:33N 37°40' W 024°31'1010.4
2016-Sep-25 10:33N 37°40' W 024°18'1110.9
2016-Sep-25 09:33N 37°40' W 024°05'2210.8
2016-Sep-25 07:30N 37°40' W 023°36'  
2016-Sep-21 23:33N 35°59' W 005°32'8 8.0
2016-Sep-21 22:33N 36°03' W 005°24'2 0.7
2016-Sep-21 19:25N 36°05' W 005°25'0 0.1
2016-Sep-21 16:28N 36°05' W 005°25'  
2016-Sep-18 01:26N 37°19' E 012°42'3311.3
2016-Sep-17 22:31N 37°02' E 013°17'1111.2
2016-Sep-17 21:34N 36°56' E 013°29'1111.2
2016-Sep-17 20:34N 36°51' E 013°41'1410.9
2016-Sep-17 19:16N 36°43' E 013°56'  
Track history (hours):
 
Tides and Currents Weather Stations Pressure Air Temp Water Temp Dewpoint Dewpoint Depression Visibility Wind Speed Wind Dir Waves Ship Positions

Glory Ocean

Last reported at 2016-Sep-26 20:28 UTC. Time now 2016-Sep-30 11:51 UTC.
Position N 38°01' W 030°59'.

Length 139 m; draft 9 m.

Type: Cargo ship. MMSI: 564700000.

Date/timePositionNaut miles runAvg speedWind from/ knotsBaromVisibWave heightAir tempDewpointWater temp
2016-Sep-26 20:28N 38°01' W 030°59'910.2
2016-Sep-26 19:33N 38°01' W 030°47'4210.6
2016-Sep-26 15:34N 37°57' W 029°53'2211.2
2016-Sep-26 13:33N 37°56' W 029°25'2211.0
2016-Sep-26 11:33N 37°54' W 028°57'3311.0
2016-Sep-26 08:33N 37°52' W 028°15'6711.1
2016-Sep-26 02:33N 37°47' W 026°51'1111.4
2016-Sep-26 01:33N 37°46' W 026°37'1111.1
2016-Sep-26 00:34N 37°45' W 026°23'3411.2
2016-Sep-25 21:34N 37°43' W 025°40'2 0.5
2016-Sep-25 17:32N 37°44' W 025°38'1 1.3
2016-Sep-25 16:33N 37°43' W 025°37'10 9.9
2016-Sep-25 15:34N 37°40' W 025°26'1110.8
2016-Sep-25 14:34N 37°40' W 025°12'2210.8
2016-Sep-25 12:34N 37°40' W 024°45'1010.4
2016-Sep-25 11:33N 37°40' W 024°31'1010.4
2016-Sep-25 10:33N 37°40' W 024°18'1110.9
2016-Sep-25 09:33N 37°40' W 024°05'2210.8
2016-Sep-25 07:30N 37°40' W 023°36'  
2016-Sep-21 23:33N 35°59' W 005°32'8 8.0
2016-Sep-21 22:33N 36°03' W 005°24'2 0.7
2016-Sep-21 19:25N 36°05' W 005°25'0 0.1
2016-Sep-21 16:28N 36°05' W 005°25'  
2016-Sep-18 01:26N 37°19' E 012°42'3311.3
2016-Sep-17 22:31N 37°02' E 013°17'1111.2
2016-Sep-17 21:34N 36°56' E 013°29'1111.2
2016-Sep-17 20:34N 36°51' E 013°41'1410.9
2016-Sep-17 19:16N 36°43' E 013°56'  

Dump ship's entire track history